Trafford Park, United Kingdom
Current Conditions -  °F | °C
As of 2:50 PM on Thursday 30 Oct 2014 (Local Time) from EGCC Reporting Station
Broken Clouds Broken Clouds  
Wind Chill: 63°   Ceiling: 3700
Heat Index: 63°   Visibility: 6mi
Dew Point: 57°   Wind: 7mph
Humidity: 82%   Direction: 190°S
Pressure: 29.97"   Gusts: NA
Location:  53.47°N, 2.31°W
Report Text: EGCC 301450Z 19006KT 130V210 9999 FEW017 SCT023 BKN037 17/14 Q1015 NOSIG
Loading
Personal Weather Stations






























Interactive Weather Map
Tropical Storm Tracking
New forecast layout! Learn more

10-Day Weather Forecast

Advertisements
Track Severe Weather on mobile